Time;durP1;ratioP1;P1;durP2;ratioP2;P2;SDS_P1;SDS_P2;PMS_P1;PMS_P2;Temp;Humidity;BMP_temperature;BMP_pressure;BME280_temperature;BME280_humidity;BME280_pressure;Samples;Min_cycle;Max_cycle;Signal;HPM_P1;HPM_P2
2021/09/21 00:00:50;;;;;;;7.20;5.32;;;13.00;99.90;;;;;;4876015;29;20128;-80
2021/09/21 00:03:16;;;;;;;11.85;5.80;;;12.90;99.90;;;;;;4875880;29;20056;-79
2021/09/21 00:05:42;;;;;;;8.18;5.95;;;12.90;99.90;;;;;;4885224;29;20104;-79
2021/09/21 00:08:08;;;;;;;9.15;5.78;;;12.80;99.90;;;;;;4895715;29;20188;-80
2021/09/21 00:10:33;;;;;;;9.25;6.10;;;12.90;99.90;;;;;;4896550;29;20037;-80
2021/09/21 00:13:02;;;;;;;6.90;5.75;;;12.90;99.90;;;;;;4881243;29;20040;-79
2021/09/21 00:15:28;;;;;;;9.38;6.05;;;12.90;99.90;;;;;;4897723;29;20048;-80
2021/09/21 00:17:54;;;;;;;7.80;5.93;;;12.90;99.90;;;;;;4897520;29;20040;-80
2021/09/21 00:20:20;;;;;;;6.30;5.20;;;12.80;99.90;;;;;;4898028;29;20208;-80
2021/09/21 00:22:46;;;;;;;7.80;5.57;;;12.80;99.90;;;;;;4897501;29;20040;-80
2021/09/21 00:25:14;;;;;;;9.55;6.00;;;12.80;99.90;;;;;;4899753;29;20519;-79
2021/09/21 00:27:43;;;;;;;7.25;5.88;;;12.80;99.90;;;;;;4884754;29;20048;-79
2021/09/21 00:30:12;;;;;;;9.70;6.03;;;12.80;99.90;;;;;;4885436;29;20048;-79
2021/09/21 00:32:38;;;;;;;8.32;6.15;;;12.70;99.90;;;;;;4885421;29;20036;-79
2021/09/21 00:35:05;;;;;;;8.52;6.00;;;12.70;99.90;;;;;;4882646;29;20414;-79
2021/09/21 00:37:30;;;;;;;10.57;6.22;;;12.70;99.90;;;;;;4884664;29;20500;-79
2021/09/21 00:39:56;;;;;;;8.80;6.00;;;12.60;99.90;;;;;;4900563;29;20051;-80
2021/09/21 00:42:25;;;;;;;8.48;6.07;;;12.60;99.90;;;;;;4900474;29;20048;-80
2021/09/21 00:45:03;;;;;;;9.80;5.82;;;12.60;99.90;;;;;;4884959;29;20043;-79
2021/09/21 00:47:29;;;;;;;9.10;5.82;;;12.60;99.90;;;;;;4885299;29;20040;-80
2021/09/21 00:49:56;;;;;;;8.38;5.82;;;12.60;99.90;;;;;;4900616;29;20701;-80
2021/09/21 00:52:22;;;;;;;9.70;6.30;;;12.60;99.90;;;;;;4900558;29;20107;-79
2021/09/21 00:54:48;;;;;;;9.90;6.50;;;12.60;99.90;;;;;;4900614;29;20320;-79
2021/09/21 00:57:14;;;;;;;7.00;6.20;;;12.60;99.90;;;;;;4884655;29;20044;-79
2021/09/21 00:59:40;;;;;;;6.75;5.72;;;12.60;99.90;;;;;;4917197;29;20048;-79
2021/09/21 01:02:06;;;;;;;10.90;6.65;;;12.60;99.90;;;;;;4885102;29;20048;-80
2021/09/21 01:04:32;;;;;;;7.72;5.65;;;12.60;99.90;;;;;;4900235;29;20135;-80
2021/09/21 01:06:58;;;;;;;6.60;5.63;;;12.50;99.90;;;;;;4917273;29;20044;-79
2021/09/21 01:09:27;;;;;;;7.63;5.85;;;12.70;99.90;;;;;;4900510;29;20087;-80
2021/09/21 01:11:55;;;;;;;7.80;5.60;;;12.60;99.90;;;;;;4900144;29;20066;-80
2021/09/21 01:14:21;;;;;;;7.72;5.18;;;12.60;99.90;;;;;;4915701;29;20052;-79
2021/09/21 01:16:48;;;;;;;8.43;6.10;;;12.60;99.90;;;;;;4915936;29;20048;-80
2021/09/21 01:19:15;;;;;;;13.23;5.55;;;12.60;99.90;;;;;;4899968;29;20047;-79
2021/09/21 01:21:42;;;;;;;9.93;5.68;;;12.60;99.90;;;;;;4915596;29;20040;-79
2021/09/21 01:24:10;;;;;;;10.02;5.30;;;12.60;99.90;;;;;;4899823;29;20040;-79
2021/09/21 01:26:36;;;;;;;8.77;5.32;;;12.60;99.90;;;;;;4899977;29;20079;-79
2021/09/21 01:29:03;;;;;;;7.88;5.10;;;12.60;99.90;;;;;;4898786;29;20048;-79
2021/09/21 01:31:29;;;;;;;6.95;5.25;;;12.60;99.90;;;;;;4915264;29;20040;-79
2021/09/21 01:33:57;;;;;;;12.27;5.07;;;12.60;99.90;;;;;;4883800;29;20059;-78
2021/09/21 01:36:25;;;;;;;8.02;5.07;;;12.60;99.90;;;;;;4898571;29;20070;-78
2021/09/21 01:38:52;;;;;;;8.35;5.47;;;12.60;99.90;;;;;;4883960;29;20175;-78
2021/09/21 01:41:18;;;;;;;7.18;5.30;;;12.50;99.90;;;;;;4900151;29;20079;-78
2021/09/21 01:43:45;;;;;;;7.75;4.90;;;12.50;99.90;;;;;;4898668;29;20480;-78
2021/09/21 01:46:18;;;;;;;6.00;4.38;;;12.50;99.90;;;;;;4899406;29;20048;-78
2021/09/21 01:48:44;;;;;;;9.60;4.75;;;12.50;99.90;;;;;;4914942;29;20116;-78
2021/09/21 01:51:16;;;;;;;5.93;4.70;;;12.50;99.90;;;;;;4899374;29;20397;-78
2021/09/21 01:59:04;;;;;;;6.68;4.57;;;12.50;99.90;;;;;;4898549;29;20078;-78
2021/09/21 02:01:29;;;;;;;6.13;4.38;;;12.40;99.90;;;;;;4899212;29;20060;-79
2021/09/21 02:03:57;;;;;;;7.95;4.40;;;12.40;99.90;;;;;;4898887;29;20048;-78
2021/09/21 02:06:34;;;;;;;6.25;4.38;;;12.40;99.90;;;;;;4900189;29;20037;-78
2021/09/21 02:09:00;;;;;;;7.47;4.63;;;12.40;99.90;;;;;;4864938;29;20080;-78
2021/09/21 02:11:25;;;;;;;10.32;4.30;;;12.40;99.90;;;;;;4895787;29;20072;-78
2021/09/21 02:13:56;;;;;;;6.78;4.38;;;12.40;99.90;;;;;;4863800;29;20055;-78
2021/09/21 02:16:26;;;;;;;5.78;4.30;;;12.30;99.90;;;;;;4879922;29;20048;-78
2021/09/21 02:18:52;;;;;;;5.47;4.35;;;12.30;99.90;;;;;;4880001;29;20157;-78
2021/09/21 02:21:36;;;;;;;5.88;4.90;;;12.20;99.90;;;;;;4879973;29;20549;-78
2021/09/21 02:24:02;;;;;;;7.00;4.20;;;12.20;99.90;;;;;;4880244;29;20127;-78
2021/09/21 02:26:28;;;;;;;7.97;4.70;;;12.20;99.90;;;;;;4879937;29;20054;-78
2021/09/21 02:28:54;;;;;;;9.18;4.70;;;12.20;99.90;;;;;;4894383;29;20044;-78
2021/09/21 02:31:21;;;;;;;7.80;4.63;;;12.20;99.90;;;;;;4896716;29;20043;-78
2021/09/21 02:33:47;;;;;;;9.07;4.40;;;12.10;99.90;;;;;;4864180;29;20135;-78
2021/09/21 02:36:14;;;;;;;9.68;5.07;;;12.20;99.90;;;;;;4894082;29;20083;-78
2021/09/21 02:38:40;;;;;;;6.68;4.97;;;12.10;99.90;;;;;;4882283;29;20047;-78
2021/09/21 02:41:06;;;;;;;7.35;5.22;;;12.10;99.90;;;;;;4914104;29;20083;-78
2021/09/21 02:43:33;;;;;;;10.98;5.30;;;12.20;99.90;;;;;;4898017;29;20045;-78
2021/09/21 02:46:01;;;;;;;7.55;5.30;;;12.20;99.90;;;;;;4898478;29;20107;-78
2021/09/21 02:48:28;;;;;;;7.45;5.57;;;12.20;99.90;;;;;;4897389;29;20040;-79
2021/09/21 02:50:53;;;;;;;10.95;5.75;;;12.10;99.90;;;;;;4898414;29;20437;-79
2021/09/21 02:53:19;;;;;;;11.07;5.30;;;12.10;99.90;;;;;;4897980;29;20042;-78
2021/09/21 02:55:45;;;;;;;8.98;5.38;;;12.10;99.90;;;;;;4882725;29;20445;-78
2021/09/21 02:58:12;;;;;;;6.93;5.60;;;12.10;99.90;;;;;;4881536;29;20055;-78
2021/09/21 03:00:38;;;;;;;8.25;5.85;;;12.20;99.90;;;;;;4882729;29;20150;-78
2021/09/21 03:03:05;;;;;;;6.82;5.85;;;12.10;99.90;;;;;;4913435;29;20040;-78
2021/09/21 03:05:36;;;;;;;7.80;5.95;;;12.10;99.90;;;;;;4890218;29;20044;-79
2021/09/21 03:08:06;;;;;;;9.00;6.20;;;12.10;99.90;;;;;;4879287;29;20135;-79
2021/09/21 03:18:09;;;;;;;15.82;7.00;;;12.00;99.90;;;;;;4879509;29;20488;-79
2021/09/21 03:20:35;;;;;;;10.80;5.82;;;12.00;99.90;;;;;;4896028;29;20489;-79
2021/09/21 03:23:01;;;;;;;10.65;5.88;;;12.10;99.90;;;;;;4879350;29;20044;-79
2021/09/21 03:25:26;;;;;;;8.25;6.05;;;12.00;99.90;;;;;;4879164;29;20518;-78
2021/09/21 03:27:52;;;;;;;7.47;5.95;;;12.00;99.90;;;;;;4878418;29;20151;-78
2021/09/21 03:30:18;;;;;;;10.10;6.18;;;12.00;99.90;;;;;;4879349;29;20062;-79
2021/09/21 03:32:44;;;;;;;12.23;6.30;;;12.00;99.90;;;;;;4879254;29;20090;-79
2021/09/21 03:35:10;;;;;;;9.90;6.70;;;11.90;99.90;;;;;;4870403;29;20503;-79
2021/09/21 03:37:36;;;;;;;10.55;6.70;;;11.90;99.90;;;;;;4881884;29;20193;-78
2021/09/21 03:40:06;;;;;;;10.88;6.07;;;11.90;99.90;;;;;;4897886;29;20041;-79
2021/09/21 03:42:32;;;;;;;10.25;6.68;;;11.90;99.90;;;;;;4881458;29;20422;-79
2021/09/21 03:44:57;;;;;;;10.38;6.50;;;11.80;99.90;;;;;;4897734;29;20063;-79
2021/09/21 03:47:23;;;;;;;10.77;6.50;;;11.90;99.90;;;;;;4897944;29;20048;-79
2021/09/21 03:49:49;;;;;;;8.20;6.40;;;12.00;99.90;;;;;;4897878;29;20422;-79
2021/09/21 03:52:14;;;;;;;9.00;6.55;;;11.90;99.90;;;;;;4897386;29;20044;-79
2021/09/21 03:54:40;;;;;;;7.75;6.60;;;11.90;99.90;;;;;;4882109;29;20075;-79
2021/09/21 03:57:06;;;;;;;8.60;6.10;;;11.90;99.90;;;;;;4882062;29;20044;-79
2021/09/21 03:59:32;;;;;;;7.22;5.68;;;11.90;99.90;;;;;;4882589;29;20222;-79
2021/09/21 04:01:58;;;;;;;7.78;6.18;;;11.80;99.90;;;;;;4886151;29;20043;-79
2021/09/21 04:04:24;;;;;;;7.57;5.65;;;11.80;99.90;;;;;;4901148;29;20044;-79
2021/09/21 04:06:49;;;;;;;7.53;5.78;;;11.90;99.90;;;;;;4883492;29;20045;-79
2021/09/21 04:09:15;;;;;;;12.23;5.95;;;11.80;99.90;;;;;;4867207;29;20544;-79
2021/09/21 04:11:41;;;;;;;8.07;6.05;;;11.80;99.90;;;;;;4866608;29;20135;-79
2021/09/21 04:14:07;;;;;;;10.00;6.00;;;11.80;99.90;;;;;;4882070;29;20120;-78
2021/09/21 04:16:33;;;;;;;11.98;6.00;;;11.80;99.90;;;;;;4882262;29;20052;-79
2021/09/21 04:18:58;;;;;;;8.50;5.78;;;11.80;99.90;;;;;;4866522;29;20036;-79
2021/09/21 04:21:26;;;;;;;9.82;6.30;;;11.70;99.90;;;;;;4867202;29;20091;-79
2021/09/21 04:23:52;;;;;;;7.75;6.05;;;11.80;99.90;;;;;;4882045;29;20032;-79
2021/09/21 04:26:18;;;;;;;10.88;5.90;;;11.60;99.90;;;;;;4866825;29;20075;-78
2021/09/21 04:28:45;;;;;;;10.93;5.90;;;11.70;99.90;;;;;;4881403;29;20067;-79
2021/09/21 04:31:16;;;;;;;11.90;6.30;;;11.70;99.90;;;;;;4866773;29;20041;-79
2021/09/21 04:33:42;;;;;;;9.65;6.78;;;11.50;99.90;;;;;;4866399;29;20079;-79
2021/09/21 04:36:09;;;;;;;10.45;6.57;;;11.40;99.90;;;;;;4880477;29;20130;-79
2021/09/21 04:38:37;;;;;;;10.25;6.00;;;11.40;99.90;;;;;;4881724;29;20477;-79
2021/09/21 04:41:04;;;;;;;13.80;6.35;;;11.20;99.90;;;;;;4881775;29;20045;-79
2021/09/21 04:43:32;;;;;;;9.05;6.65;;;11.30;99.90;;;;;;4881168;29;20040;-79
2021/09/21 04:45:59;;;;;;;8.80;6.22;;;11.20;99.90;;;;;;4881985;29;20404;-79
2021/09/21 04:48:25;;;;;;;11.85;6.60;;;11.20;99.90;;;;;;4866345;29;20048;-78
2021/09/21 04:50:51;;;;;;;9.70;6.22;;;11.10;99.90;;;;;;4897250;29;20091;-78
2021/09/21 04:53:17;;;;;;;10.95;6.20;;;11.10;99.90;;;;;;4880849;29;20049;-78
2021/09/21 04:55:42;;;;;;;13.05;6.10;;;11.00;99.90;;;;;;4876892;29;20040;-78
2021/09/21 04:58:08;;;;;;;9.77;6.93;;;11.00;99.90;;;;;;4898981;29;20095;-78
2021/09/21 05:00:34;;;;;;;11.23;6.35;;;11.00;99.90;;;;;;4899955;29;20091;-78
2021/09/21 05:03:00;;;;;;;11.48;6.22;;;10.90;99.90;;;;;;4916579;29;20460;-78
2021/09/21 05:05:26;;;;;;;11.27;6.38;;;10.90;99.90;;;;;;4899604;29;20044;-78
2021/09/21 05:07:54;;;;;;;10.50;6.55;;;10.90;99.90;;;;;;4900040;29;20055;-78
2021/09/21 05:10:20;;;;;;;11.90;6.38;;;10.90;99.90;;;;;;4898864;29;20048;-78
2021/09/21 05:12:46;;;;;;;10.15;6.50;;;10.80;99.90;;;;;;4895082;29;20136;-79
2021/09/21 05:15:12;;;;;;;10.85;6.85;;;10.80;99.90;;;;;;4880792;29;20600;-79
2021/09/21 05:17:38;;;;;;;10.95;6.88;;;10.80;99.90;;;;;;4896270;29;20055;-78
2021/09/21 05:20:06;;;;;;;10.15;6.45;;;10.70;99.90;;;;;;4881111;29;20040;-78
2021/09/21 05:22:31;;;;;;;11.65;7.10;;;10.70;99.90;;;;;;4881022;29;20047;-78
2021/09/21 05:24:57;;;;;;;11.38;6.88;;;10.70;99.90;;;;;;4896437;29;20045;-78
2021/09/21 05:27:23;;;;;;;9.55;6.45;;;10.70;99.90;;;;;;4895698;29;20462;-78
2021/09/21 05:29:49;;;;;;;9.80;6.68;;;10.70;99.90;;;;;;4880707;29;20569;-78
2021/09/21 05:32:14;;;;;;;10.95;6.30;;;10.70;99.90;;;;;;4880969;29;20115;-78
2021/09/21 05:34:41;;;;;;;9.10;7.00;;;10.70;99.90;;;;;;4880777;29;20055;-79
2021/09/21 05:37:07;;;;;;;9.05;6.60;;;10.60;99.90;;;;;;4880811;29;20049;-79
2021/09/21 05:39:33;;;;;;;11.07;6.60;;;10.70;99.90;;;;;;4896540;29;20097;-79
2021/09/21 05:41:58;;;;;;;10.25;6.72;;;10.70;99.90;;;;;;4896418;29;20469;-79
2021/09/21 05:44:24;;;;;;;10.57;6.85;;;10.80;99.90;;;;;;4895776;29;20044;-79
2021/09/21 05:46:50;;;;;;;11.52;6.57;;;10.70;99.90;;;;;;4881141;29;20040;-79
2021/09/21 05:49:16;;;;;;;11.75;6.50;;;10.70;99.90;;;;;;4896261;29;20500;-79
2021/09/21 05:51:48;;;;;;;10.50;7.18;;;10.70;99.90;;;;;;4896198;29;20041;-79
2021/09/21 05:54:13;;;;;;;11.43;7.18;;;10.70;99.90;;;;;;4896635;29;20044;-79
2021/09/21 05:56:39;;;;;;;15.00;7.72;;;10.80;99.90;;;;;;4880401;29;20047;-80
2021/09/21 05:59:07;;;;;;;8.30;6.97;;;10.80;99.90;;;;;;4895369;29;20048;-79
2021/09/21 06:01:35;;;;;;;11.23;7.05;;;10.80;99.90;;;;;;4896722;29;20048;-79
2021/09/21 06:04:01;;;;;;;12.57;7.00;;;10.80;99.90;;;;;;4895838;29;20095;-79
2021/09/21 06:06:27;;;;;;;13.45;7.28;;;10.80;99.90;;;;;;4896541;29;20048;-79
2021/09/21 06:08:53;;;;;;;10.55;7.10;;;10.80;99.90;;;;;;4880328;29;20108;-79
2021/09/21 06:11:27;;;;;;;10.32;6.78;;;10.80;99.90;;;;;;4895832;29;20079;-79
2021/09/21 06:13:55;;;;;;;12.25;6.95;;;10.80;99.90;;;;;;4879524;29;20095;-79
2021/09/21 06:16:21;;;;;;;12.18;7.07;;;10.80;99.90;;;;;;4896007;29;20052;-79
2021/09/21 06:18:47;;;;;;;10.40;7.70;;;10.80;99.90;;;;;;4895831;29;20100;-79
2021/09/21 06:21:12;;;;;;;11.55;7.63;;;10.90;99.90;;;;;;4895708;29;20032;-80
2021/09/21 06:23:38;;;;;;;10.52;7.40;;;11.10;99.90;;;;;;4895467;29;20186;-79
2021/09/21 06:26:04;;;;;;;11.27;6.82;;;11.00;99.90;;;;;;4895894;29;20584;-79
2021/09/21 06:28:30;;;;;;;11.15;7.18;;;11.00;99.90;;;;;;4894751;29;20129;-79
2021/09/21 06:30:56;;;;;;;12.73;7.03;;;11.00;99.90;;;;;;4895915;29;20091;-79
2021/09/21 06:33:23;;;;;;;9.05;7.10;;;11.10;99.90;;;;;;4895524;29;20062;-79
2021/09/21 06:35:50;;;;;;;11.93;7.20;;;11.10;99.90;;;;;;4895882;29;20045;-79
2021/09/21 06:38:16;;;;;;;10.25;7.50;;;11.20;99.90;;;;;;4895318;29;20497;-79
2021/09/21 06:40:41;;;;;;;10.77;7.60;;;11.20;99.90;;;;;;4879842;29;20136;-79
2021/09/21 06:43:07;;;;;;;11.55;7.32;;;11.20;99.90;;;;;;4879151;29;20128;-79
2021/09/21 06:45:33;;;;;;;11.23;7.00;;;11.30;99.90;;;;;;4895465;29;20047;-80
2021/09/21 06:47:58;;;;;;;13.50;6.85;;;11.30;99.90;;;;;;4879725;29;20139;-79
2021/09/21 06:50:24;;;;;;;12.07;7.80;;;11.40;99.90;;;;;;4879731;29;20036;-79
2021/09/21 06:52:52;;;;;;;12.35;6.78;;;11.50;99.90;;;;;;4895511;29;20079;-79
2021/09/21 06:55:18;;;;;;;11.50;7.07;;;11.50;99.90;;;;;;4895847;29;20051;-79
2021/09/21 06:57:52;;;;;;;8.73;6.80;;;11.60;99.90;;;;;;4909949;29;20517;-80
2021/09/21 07:00:20;;;;;;;13.15;7.22;;;11.70;99.90;;;;;;4911192;29;20064;-79
2021/09/21 07:02:48;;;;;;;11.02;6.85;;;11.80;99.90;;;;;;4911049;29;20048;-79
2021/09/21 07:05:14;;;;;;;9.73;6.70;;;11.90;99.90;;;;;;4895134;29;20037;-79
2021/09/21 07:07:48;;;;;;;10.85;6.82;;;12.00;99.90;;;;;;4895339;29;20135;-79
2021/09/21 07:10:15;;;;;;;18.70;7.40;;;12.00;99.90;;;;;;4910971;29;20044;-79
2021/09/21 07:12:41;;;;;;;9.55;6.47;;;12.10;99.90;;;;;;4894451;29;20084;-79
2021/09/21 07:15:08;;;;;;;10.20;6.40;;;12.20;99.90;;;;;;4895413;29;20143;-79
2021/09/21 07:17:34;;;;;;;9.35;6.88;;;12.30;99.90;;;;;;4894937;29;20108;-79
2021/09/21 07:20:00;;;;;;;10.75;6.38;;;12.40;99.90;;;;;;4895030;29;20044;-80
2021/09/21 07:22:28;;;;;;;12.05;7.35;;;12.50;99.90;;;;;;4894828;29;20087;-79
2021/09/21 07:24:55;;;;;;;12.27;6.63;;;12.50;99.90;;;;;;4895166;29;20128;-79
2021/09/21 07:27:21;;;;;;;10.18;5.97;;;12.60;99.90;;;;;;4907385;29;20073;-79
2021/09/21 07:29:46;;;;;;;10.60;6.47;;;12.80;99.90;;;;;;4875586;29;20045;-79
2021/09/21 07:32:12;;;;;;;13.25;6.25;;;12.90;99.90;;;;;;4876483;29;20048;-79
2021/09/21 07:34:38;;;;;;;11.50;6.55;;;12.90;99.90;;;;;;4897684;29;20076;-79
2021/09/21 07:37:04;;;;;;;9.15;6.00;;;13.00;99.90;;;;;;4901241;29;20112;-79
2021/09/21 07:39:30;;;;;;;11.10;6.60;;;13.10;99.90;;;;;;4901448;29;20040;-80
2021/09/21 07:41:56;;;;;;;12.05;6.20;;;13.30;99.90;;;;;;4901487;29;20048;-79
2021/09/21 07:44:22;;;;;;;9.70;6.38;;;13.30;99.90;;;;;;4900427;29;20040;-79
2021/09/21 07:46:48;;;;;;;10.35;6.18;;;13.40;99.90;;;;;;4901495;29;20044;-80
2021/09/21 07:49:14;;;;;;;9.65;6.35;;;13.40;99.90;;;;;;4901031;29;20036;-80
2021/09/21 07:51:40;;;;;;;7.82;6.10;;;13.50;99.90;;;;;;4901037;29;20080;-80
2021/09/21 07:54:08;;;;;;;10.07;6.43;;;13.60;99.90;;;;;;4901185;29;20036;-80
2021/09/21 07:56:34;;;;;;;7.07;5.75;;;13.60;99.90;;;;;;4900890;29;20076;-79
2021/09/21 07:59:01;;;;;;;7.15;5.55;;;13.60;99.90;;;;;;4884341;29;20040;-79
2021/09/21 08:01:27;;;;;;;8.95;5.95;;;13.70;99.90;;;;;;4900946;29;20055;-79
2021/09/21 08:03:54;;;;;;;9.27;6.25;;;13.80;99.90;;;;;;4900783;29;20040;-79
2021/09/21 08:06:20;;;;;;;9.30;5.45;;;14.00;99.90;;;;;;4900744;29;20063;-79
2021/09/21 08:08:46;;;;;;;8.50;5.55;;;14.00;99.90;;;;;;4885246;29;20512;-79
2021/09/21 08:11:12;;;;;;;12.07;5.90;;;14.10;99.90;;;;;;4900801;29;20217;-79
2021/09/21 08:13:39;;;;;;;8.95;5.55;;;14.30;99.90;;;;;;4900009;29;20075;-79
2021/09/21 08:16:05;;;;;;;8.50;5.55;;;14.30;99.90;;;;;;4900753;29;20055;-79
2021/09/21 08:18:31;;;;;;;6.32;5.13;;;14.40;99.90;;;;;;4900559;29;20143;-79
2021/09/21 08:20:56;;;;;;;9.10;5.35;;;14.50;99.90;;;;;;4901000;29;20120;-79
2021/09/21 08:23:22;;;;;;;6.63;5.55;;;14.60;99.90;;;;;;4902129;29;20172;-79
2021/09/21 08:25:48;;;;;;;8.40;5.15;;;14.70;99.90;;;;;;4900032;29;20456;-79
2021/09/21 08:28:13;;;;;;;8.25;5.05;;;14.80;99.90;;;;;;4881199;29;20037;-79
2021/09/21 08:30:39;;;;;;;8.43;5.10;;;14.80;99.90;;;;;;4883317;29;20081;-79
2021/09/21 08:33:05;;;;;;;5.03;4.53;;;15.00;99.90;;;;;;4882189;29;20055;-79
2021/09/21 08:35:31;;;;;;;8.93;4.95;;;15.00;99.90;;;;;;4891018;29;20488;-79
2021/09/21 08:38:00;;;;;;;6.60;4.57;;;15.10;99.90;;;;;;4900448;29;20366;-79
2021/09/21 08:40:27;;;;;;;7.40;4.40;;;15.20;99.90;;;;;;4900627;29;20044;-79
2021/09/21 08:42:52;;;;;;;14.40;4.72;;;15.30;99.90;;;;;;4884098;29;20048;-79
2021/09/21 08:45:18;;;;;;;9.18;4.32;;;15.30;99.90;;;;;;4899835;29;20128;-79
2021/09/21 08:47:45;;;;;;;6.95;4.70;;;15.40;99.90;;;;;;4899289;29;20063;-79
2021/09/21 08:50:11;;;;;;;6.13;4.10;;;15.50;99.90;;;;;;4897472;29;20047;-79
2021/09/21 08:52:40;;;;;;;7.25;4.28;;;15.60;99.90;;;;;;4897223;29;20454;-79
2021/09/21 08:55:08;;;;;;;9.00;4.10;;;15.60;99.90;;;;;;4897267;29;20139;-79
2021/09/21 08:57:35;;;;;;;6.25;4.10;;;15.80;99.90;;;;;;4880969;29;20056;-79
2021/09/21 09:00:01;;;;;;;8.52;4.10;;;15.70;99.90;;;;;;4897570;29;20044;-79
2021/09/21 09:02:27;;;;;;;7.50;4.13;;;15.90;99.90;;;;;;4897487;29;20362;-79
2021/09/21 09:05:03;;;;;;;6.65;3.95;;;16.00;99.90;;;;;;4897451;29;20109;-79
2021/09/21 09:07:55;;;;;;;5.97;3.67;;;16.10;99.90;;;;;;4897350;29;20047;-79
2021/09/21 09:10:23;;;;;;;7.72;3.75;;;16.20;99.90;;;;;;4898843;29;20045;-80
2021/09/21 09:12:49;;;;;;;6.88;4.10;;;16.40;99.90;;;;;;4913360;29;20386;-79
2021/09/21 09:15:22;;;;;;;7.22;4.32;;;16.30;99.90;;;;;;4884924;29;20488;-80
2021/09/21 09:17:56;;;;;;;8.23;4.22;;;16.40;99.90;;;;;;4884559;29;20069;-79
2021/09/21 09:20:33;;;;;;;7.50;4.13;;;16.50;99.90;;;;;;4884713;29;20119;-80
2021/09/21 09:22:59;;;;;;;7.38;4.63;;;16.50;99.90;;;;;;4884256;29;20044;-80
2021/09/21 09:25:26;;;;;;;8.55;4.47;;;16.60;99.90;;;;;;4900220;29;20051;-80
2021/09/21 09:27:52;;;;;;;6.97;4.30;;;16.60;99.90;;;;;;4880706;29;20500;-80
2021/09/21 09:30:22;;;;;;;6.35;4.30;;;16.70;99.90;;;;;;4897112;29;20130;-80
2021/09/21 09:32:56;;;;;;;12.82;4.80;;;16.60;99.90;;;;;;4897214;29;20059;-80
2021/09/21 09:35:34;;;;;;;9.90;4.38;;;16.70;99.90;;;;;;4889405;29;20052;-80
2021/09/21 09:38:07;;;;;;;10.65;4.45;;;16.80;99.90;;;;;;4884156;29;20048;-80
2021/09/21 09:40:42;;;;;;;6.70;4.30;;;16.90;99.90;;;;;;4899936;29;20040;-80
2021/09/21 09:43:08;;;;;;;6.40;4.45;;;16.90;99.90;;;;;;4883739;29;20079;-80
2021/09/21 09:45:43;;;;;;;7.95;4.80;;;17.00;99.90;;;;;;4899737;29;20091;-80
2021/09/21 09:48:14;;;;;;;7.45;4.80;;;17.00;99.90;;;;;;4899832;29;20059;-80
2021/09/21 09:50:42;;;;;;;9.13;4.47;;;17.20;99.90;;;;;;4899509;29;20127;-80
2021/09/21 09:53:18;;;;;;;9.15;4.38;;;17.30;99.90;;;;;;4915308;29;20032;-80
2021/09/21 09:55:46;;;;;;;11.55;4.80;;;17.20;99.90;;;;;;4884122;29;20060;-80
2021/09/21 09:58:14;;;;;;;10.65;4.60;;;17.20;99.90;;;;;;4898527;29;20477;-80
2021/09/21 10:00:40;;;;;;;9.07;4.25;;;17.30;99.90;;;;;;4884176;29;20051;-80
2021/09/21 10:03:06;;;;;;;8.07;4.80;;;17.40;99.90;;;;;;4899499;29;20051;-80
2021/09/21 10:05:37;;;;;;;11.20;5.10;;;17.40;99.90;;;;;;4899572;29;20484;-80
2021/09/21 10:11:46;;;;;;;5.70;4.15;;;17.50;99.90;;;;;;4916363;29;20056;-80
2021/09/21 10:14:13;;;;;;;7.28;4.25;;;17.50;99.90;;;;;;4898720;29;20106;-80
2021/09/21 10:16:53;;;;;;;7.75;4.38;;;17.60;99.90;;;;;;4883931;29;20139;-80
2021/09/21 10:19:22;;;;;;;17.55;4.50;;;17.60;99.90;;;;;;4883896;29;20095;-80
2021/09/21 10:21:49;;;;;;;13.18;4.95;;;17.80;99.90;;;;;;4916875;29;20040;-80
2021/09/21 10:24:16;;;;;;;13.18;4.78;;;17.80;99.90;;;;;;4883638;29;20346;-80
2021/09/21 10:26:46;;;;;;;10.40;4.18;;;17.80;99.90;;;;;;4892008;29;20108;-80
2021/09/21 10:29:16;;;;;;;10.68;4.32;;;18.00;99.90;;;;;;4864097;29;20040;-80
2021/09/21 10:31:42;;;;;;;6.95;4.32;;;18.00;99.90;;;;;;4897264;29;20108;-80
2021/09/21 10:34:16;;;;;;;8.35;4.10;;;18.20;99.90;;;;;;4864673;29;20052;-80
2021/09/21 10:36:51;;;;;;;8.10;4.60;;;18.30;99.90;;;;;;4883090;29;20166;-80
2021/09/21 10:39:19;;;;;;;7.28;4.20;;;18.30;99.90;;;;;;4883114;29;20072;-80
2021/09/21 10:41:58;;;;;;;6.93;4.40;;;18.40;99.90;;;;;;4883389;29;20076;-80
2021/09/21 10:44:24;;;;;;;7.40;4.30;;;18.60;99.90;;;;;;4898353;29;20062;-80
2021/09/21 10:46:57;;;;;;;7.18;4.22;;;18.90;99.90;;;;;;4884015;29;20091;-80
2021/09/21 10:49:35;;;;;;;7.43;4.22;;;18.90;99.90;;;;;;4899006;29;20078;-79
2021/09/21 10:52:26;;;;;;;10.52;4.70;;;19.00;99.90;;;;;;4865755;29;20099;-80
2021/09/21 10:54:54;;;;;;;7.63;4.80;;;19.10;99.90;;;;;;4864596;29;20048;-80
2021/09/21 10:57:33;;;;;;;9.57;4.68;;;18.90;99.90;;;;;;4879610;29;20049;-80
2021/09/21 11:00:01;;;;;;;8.77;4.50;;;18.90;99.90;;;;;;4880039;29;20068;-80
2021/09/21 11:02:36;;;;;;;8.02;4.40;;;19.00;99.90;;;;;;4864244;29;20048;-80
2021/09/21 11:05:08;;;;;;;11.93;5.43;;;19.10;99.90;;;;;;4880275;29;20036;-80
2021/09/21 11:07:36;;;;;;;20.30;5.40;;;18.90;99.90;;;;;;4880176;29;20045;-80
2021/09/21 11:10:04;;;;;;;17.35;5.13;;;19.00;99.90;;;;;;4879075;29;20176;-79
2021/09/21 11:12:30;;;;;;;15.73;5.43;;;18.90;99.90;;;;;;4878721;29;20588;-79
2021/09/21 11:14:58;;;;;;;12.98;5.10;;;18.90;99.90;;;;;;4880684;29;20060;-80
2021/09/21 11:17:26;;;;;;;14.07;4.80;;;18.70;99.90;;;;;;4879801;29;20084;-79
2021/09/21 11:19:54;;;;;;;11.52;5.70;;;18.50;99.90;;;;;;4864691;29;20044;-79
2021/09/21 11:22:29;;;;;;;16.33;6.20;;;18.50;99.90;;;;;;4864200;29;20088;-80
2021/09/21 11:24:59;;;;;;;;;;;18.30;99.90;;;;;;4864702;29;20045;-80
2021/09/21 11:27:27;;;;;;;9.90;5.20;;;18.10;99.90;;;;;;4894815;29;20098;-80
2021/09/21 11:30:00;;;;;;;11.27;5.10;;;18.10;99.90;;;;;;4864103;29;20060;-80
2021/09/21 11:32:27;;;;;;;13.70;5.57;;;18.10;99.90;;;;;;4865100;29;20048;-80
2021/09/21 11:34:58;;;;;;;19.20;5.35;;;17.80;99.90;;;;;;4884045;29;20285;-80
2021/09/21 11:37:25;;;;;;;20.42;5.70;;;17.70;99.90;;;;;;4898230;29;20117;-80
2021/09/21 11:39:51;;;;;;;7.72;5.32;;;17.70;99.90;;;;;;4898406;29;20059;-80
2021/09/21 11:42:31;;;;;;;12.50;5.35;;;17.60;99.90;;;;;;4898308;29;20036;-79
2021/09/21 11:45:09;;;;;;;10.88;4.95;;;17.50;99.90;;;;;;4883490;29;20139;-79
2021/09/21 11:47:40;;;;;;;15.02;4.93;;;17.40;99.90;;;;;;4883030;29;20052;-79
2021/09/21 11:50:15;;;;;;;21.30;5.50;;;17.30;99.90;;;;;;4898131;29;20048;-80
2021/09/21 11:52:45;;;;;;;14.60;5.95;;;17.30;99.90;;;;;;4897966;29;20099;-79
2021/09/21 11:55:13;;;;;;;16.05;5.22;;;17.30;99.90;;;;;;4898236;29;20118;-79
2021/09/21 11:57:41;;;;;;;10.60;5.30;;;17.20;99.90;;;;;;4897184;29;20052;-80
2021/09/21 12:00:17;;;;;;;8.02;5.53;;;17.20;99.90;;;;;;4882403;29;20048;-79
2021/09/21 12:02:43;;;;;;;8.15;5.03;;;17.10;99.90;;;;;;4914461;29;20051;-79
2021/09/21 12:05:12;;;;;;;8.98;5.00;;;17.20;99.90;;;;;;4897866;29;20044;-79
2021/09/21 12:07:39;;;;;;;11.85;5.05;;;17.10;99.90;;;;;;4897506;29;20040;-80
2021/09/21 12:10:09;;;;;;;14.35;5.45;;;17.10;99.90;;;;;;4882222;29;20047;-80
2021/09/21 12:12:35;;;;;;;16.25;5.03;;;17.20;99.90;;;;;;4881428;29;20094;-79
2021/09/21 12:15:00;;;;;;;15.60;5.22;;;17.20;99.90;;;;;;4897639;29;20064;-79
2021/09/21 12:17:27;;;;;;;12.13;4.78;;;17.20;99.90;;;;;;4897546;29;20052;-80
2021/09/21 12:20:00;;;;;;;9.02;5.03;;;17.30;99.90;;;;;;4898198;29;20036;-79
2021/09/21 12:22:27;;;;;;;6.60;4.68;;;17.30;99.90;;;;;;4885388;29;20046;-80
2021/09/21 12:25:04;;;;;;;8.10;4.55;;;17.40;99.90;;;;;;4901221;29;20039;-79
2021/09/21 12:27:30;;;;;;;8.30;4.70;;;17.50;99.90;;;;;;4881674;29;20045;-79
2021/09/21 12:29:58;;;;;;;10.82;5.15;;;17.60;99.90;;;;;;4882184;29;20059;-80
2021/09/21 12:32:25;;;;;;;9.55;4.97;;;17.60;99.90;;;;;;4897694;29;20036;-80
2021/09/21 12:35:09;;;;;;;10.20;5.28;;;17.70;99.90;;;;;;4885934;29;20445;-80
2021/09/21 12:37:38;;;;;;;11.35;4.95;;;17.80;99.90;;;;;;4900694;29;20051;-80
2021/09/21 12:40:13;;;;;;;11.82;5.18;;;18.00;99.90;;;;;;4901378;29;20048;-80
2021/09/21 12:42:40;;;;;;;6.55;4.53;;;18.00;99.90;;;;;;4884473;29;20341;-79
2021/09/21 12:45:09;;;;;;;7.18;5.47;;;18.10;99.90;;;;;;4885342;29;20461;-80
2021/09/21 12:47:39;;;;;;;9.38;5.40;;;18.10;99.90;;;;;;4885009;29;20097;-80
2021/09/21 12:50:16;;;;;;;9.73;5.28;;;18.10;99.90;;;;;;4900370;29;20507;-80
2021/09/21 12:52:58;;;;;;;8.85;5.00;;;18.20;99.90;;;;;;4900435;29;20448;-80
2021/09/21 12:55:29;;;;;;;9.20;5.75;;;18.30;99.90;;;;;;4885981;29;20139;-79
2021/09/21 12:57:56;;;;;;;8.30;5.28;;;18.40;99.90;;;;;;4899467;29;20493;-80
2021/09/21 13:00:22;;;;;;;13.52;5.47;;;18.50;99.90;;;;;;4900821;29;20074;-80
2021/09/21 13:02:52;;;;;;;8.82;5.47;;;18.60;99.90;;;;;;4885105;29;20146;-79